Time;durP1;ratioP1;P1;durP2;ratioP2;P2;SDS_P1;SDS_P2;PMS_P1;PMS_P2;Temp;Humidity;BMP_temperature;BMP_pressure;BME280_temperature;BME280_humidity;BME280_pressure;Samples;Min_cycle;Max_cycle;Signal;HPM_P1;HPM_P2
2021/09/02 00:01:05;;;;;;;24.10;8.60;;;;;;;14.06;89.17;99349.95;234315;1204;22556;-82
2021/09/02 00:06:08;;;;;;;20.30;8.10;;;;;;;14.14;89.34;99350.56;234549;1204;25035;-81
2021/09/02 00:11:14;;;;;;;23.60;7.80;;;;;;;14.22;89.52;99348.70;235066;1204;22834;-80
2021/09/02 00:16:18;;;;;;;27.60;9.30;;;;;;;14.26;89.41;99353.05;235113;1204;22462;-83
2021/09/02 00:21:22;;;;;;;17.90;5.90;;;;;;;14.35;89.84;99355.80;234909;1204;22451;-82
2021/09/02 00:26:26;;;;;;;18.60;8.10;;;;;;;14.35;89.23;99354.34;235081;1204;24003;-82
2021/09/02 00:31:29;;;;;;;20.90;8.10;;;;;;;14.31;89.22;99355.27;235168;1204;25237;-79
2021/09/02 00:36:42;;;;;;;18.40;7.40;;;;;;;14.31;89.49;99358.73;234614;1200;22531;-83
2021/09/02 00:41:50;;;;;;;24.00;7.90;;;;;;;14.24;89.23;99358.20;235185;1204;23070;-82
2021/09/02 00:46:53;;;;;;;23.20;8.20;;;;;;;14.17;89.31;99365.27;235027;1205;22502;-83
2021/09/02 00:52:02;;;;;;;18.90;7.10;;;;;;;14.17;89.56;99366.90;235494;1204;22483;-84
2021/09/02 00:57:08;;;;;;;15.00;6.60;;;;;;;14.16;89.64;99363.84;235198;1198;25321;-83
2021/09/02 01:02:11;;;;;;;19.20;6.70;;;;;;;14.15;89.78;99367.04;234983;1205;22475;-83
2021/09/02 01:07:14;;;;;;;10.80;5.20;;;;;;;14.12;89.63;99362.99;234960;1200;22533;-82
2021/09/02 01:12:31;;;;;;;13.30;5.30;;;;;;;14.05;89.35;99363.17;235032;1204;24136;-84
2021/09/02 01:17:36;;;;;;;17.40;6.40;;;;;;;13.97;89.49;99357.45;235115;1204;24092;-84
2021/09/02 01:22:41;;;;;;;18.40;5.50;;;;;;;13.95;89.56;99358.46;234923;1204;22571;-84
2021/09/02 01:27:49;;;;;;;19.50;6.00;;;;;;;13.91;89.68;99357.61;235272;1205;22502;-83
2021/09/02 01:33:00;;;;;;;22.50;5.70;;;;;;;13.85;89.63;99355.98;234994;1204;22530;-82
2021/09/02 01:38:17;;;;;;;10.40;5.40;;;;;;;13.76;89.75;99351.62;234777;1204;23704;-83
2021/09/02 01:43:19;;;;;;;14.40;5.80;;;;;;;13.67;89.91;99352.24;234951;1204;22494;-84
2021/09/02 01:48:23;;;;;;;10.20;4.90;;;;;;;13.57;89.81;99352.73;234919;1205;24062;-85
2021/09/02 01:53:28;;;;;;;10.80;4.30;;;;;;;13.50;89.89;99347.84;234851;1205;22462;-82
2021/09/02 01:58:35;;;;;;;9.00;4.20;;;;;;;13.44;89.96;99360.10;234821;1201;22458;-83
2021/09/02 02:03:39;;;;;;;11.10;5.20;;;;;;;13.38;90.09;99362.16;234896;1206;22476;-82
2021/09/02 02:08:42;;;;;;;11.70;4.60;;;;;;;13.28;90.18;99362.78;234971;1204;24045;-83
2021/09/02 02:13:44;;;;;;;14.30;4.50;;;;;;;13.21;90.20;99357.98;234927;1205;22516;-81
2021/09/02 02:18:48;;;;;;;11.20;5.70;;;;;;;13.13;90.35;99356.10;234807;1207;22576;-81
2021/09/02 02:23:50;;;;;;;7.90;3.30;;;;;;;13.12;90.47;99350.15;234863;1204;25218;-83
2021/09/02 02:29:03;;;;;;;14.90;5.40;;;;;;;13.10;90.59;99353.88;234705;1205;24058;-83
2021/09/02 02:34:14;;;;;;;12.80;4.30;;;;;;;13.10;90.67;99351.29;235075;1197;22440;-83
2021/09/02 02:39:16;;;;;;;15.60;4.30;;;;;;;13.12;90.71;99348.26;234955;1206;22600;-83
2021/09/02 02:44:23;;;;;;;9.10;4.60;;;;;;;13.15;90.85;99340.84;234785;1204;22465;-82
2021/09/02 02:49:26;;;;;;;12.20;4.50;;;;;;;13.17;90.89;99342.20;234991;1204;24098;-82
2021/09/02 02:54:29;;;;;;;14.50;4.90;;;;;;;13.21;90.92;99346.52;235225;1204;24062;-82
2021/09/02 02:59:32;;;;;;;12.60;4.70;;;;;;;13.22;91.06;99345.06;235152;1205;24104;-82
2021/09/02 03:04:36;;;;;;;15.60;5.20;;;;;;;13.20;90.97;99341.86;235235;1205;25248;-82
2021/09/02 03:09:39;;;;;;;12.30;4.40;;;;;;;13.11;91.01;99338.15;234953;1204;22840;-83
2021/09/02 03:14:42;;;;;;;9.80;4.10;;;;;;;13.03;90.84;99344.68;234983;1204;24047;-82
2021/09/02 03:20:02;;;;;;;10.20;4.20;;;;;;;12.93;90.93;99344.02;235024;1205;24115;-90
2021/09/02 03:25:06;;;;;;;10.80;4.50;;;;;;;12.82;90.87;99352.86;234981;1207;22438;-83
2021/09/02 03:30:12;;;;;;;10.70;4.00;;;;;;;12.74;90.97;99354.41;234877;1207;22487;-82
2021/09/02 03:35:15;;;;;;;15.90;4.70;;;;;;;12.65;91.05;99358.34;235166;1199;22447;-81
2021/09/02 03:40:18;;;;;;;14.60;4.90;;;;;;;12.56;91.09;99364.36;235049;1204;25334;-82
2021/09/02 03:45:21;;;;;;;12.90;5.30;;;;;;;12.47;91.48;99365.91;234833;1204;22571;-82
2021/09/02 03:50:24;;;;;;;11.30;4.70;;;;;;;12.44;91.86;99369.61;234991;1205;25334;-82
2021/09/02 03:55:26;;;;;;;11.20;4.30;;;;;;;12.41;92.03;99372.10;235379;1212;25197;-81
2021/09/02 04:00:29;;;;;;;13.80;5.50;;;;;;;12.38;92.19;99370.96;235233;1198;24040;-82
2021/09/02 04:05:45;;;;;;;12.50;5.50;;;;;;;12.32;91.99;99372.59;235265;1206;22452;-82
2021/09/02 04:11:00;;;;;;;16.60;5.30;;;;;;;12.21;91.62;99382.85;235280;1204;24841;-84
2021/09/02 04:16:18;;;;;;;15.50;4.50;;;;;;;12.10;91.59;99387.62;235433;1205;25192;-83
2021/09/02 04:21:34;;;;;;;19.30;5.90;;;;;;;12.01;91.46;99389.23;235164;1204;22517;-83
2021/09/02 04:26:38;;;;;;;17.20;6.00;;;;;;;11.96;91.69;99392.73;235162;1212;22970;-82
2021/09/02 04:31:41;;;;;;;12.50;6.00;;;;;;;11.95;91.84;99398.30;235137;1204;24233;-82
2021/09/02 04:36:43;;;;;;;17.00;5.80;;;;;;;11.96;91.74;99402.73;235122;1205;22465;-83
2021/09/02 04:41:46;;;;;;;18.60;6.20;;;;;;;12.03;92.05;99402.62;235068;1207;24044;-81
2021/09/02 04:47:02;;;;;;;22.80;7.10;;;;;;;12.09;91.95;99407.34;235070;1204;22597;-82
2021/09/02 04:52:21;;;;;;;14.50;5.20;;;;;;;12.22;92.11;99412.86;235698;1201;22758;-83
2021/09/02 04:57:34;;;;;;;22.90;6.70;;;;;;;12.31;92.14;99416.27;235114;1203;22461;-83
2021/09/02 05:02:51;;;;;;;21.80;7.50;;;;;;;12.45;92.19;99425.38;234987;1205;22475;-83
2021/09/02 05:07:54;;;;;;;23.00;7.10;;;;;;;12.65;92.60;99435.20;234972;1205;22546;-83
2021/09/02 05:12:58;;;;;;;22.40;7.00;;;;;;;12.91;92.66;99440.99;234882;1205;22467;-83
2021/09/02 05:18:01;;;;;;;22.60;7.60;;;;;;;13.05;92.16;99438.46;234728;1208;22472;-82
2021/09/02 05:23:04;;;;;;;20.00;7.70;;;;;;;13.15;92.12;99444.99;235383;1205;22594;-83
2021/09/02 05:28:08;;;;;;;22.30;8.10;;;;;;;13.27;92.12;99448.30;235498;1205;22465;-81
2021/09/02 05:33:11;;;;;;;18.40;7.50;;;;;;;13.38;91.82;99446.34;235277;1209;22537;-82
2021/09/02 05:38:14;;;;;;;25.70;8.80;;;;;;;13.41;91.57;99444.96;235095;1205;25173;-82
2021/09/02 05:43:24;;;;;;;18.20;7.00;;;;;;;13.42;91.43;99450.23;235765;1203;24039;-84
2021/09/02 05:48:27;;;;;;;28.50;8.40;;;;;;;13.47;91.69;99454.13;235605;1209;22472;-82
2021/09/02 05:53:29;;;;;;;22.40;8.30;;;;;;;13.60;91.69;99462.67;235413;1208;22500;-84
2021/09/02 05:58:33;;;;;;;30.40;10.20;;;;;;;13.77;91.46;99461.99;235498;1208;24091;-83
2021/09/02 06:03:35;;;;;;;20.10;7.80;;;;;;;13.88;91.31;99464.94;236453;1210;22524;-83
2021/09/02 06:08:39;;;;;;;27.00;7.90;;;;;;;13.92;90.88;99466.56;236079;1205;22462;-84
2021/09/02 06:13:42;;;;;;;27.20;9.50;;;;;;;14.06;90.98;99467.74;235782;1208;22908;-86
2021/09/02 06:18:46;;;;;;;30.10;8.50;;;;;;;14.30;90.82;99469.77;235295;1206;24034;-82
2021/09/02 06:23:50;;;;;;;20.80;7.80;;;;;;;14.46;90.33;99472.78;235425;1209;25046;-82
2021/09/02 06:29:03;;;;;;;23.30;9.10;;;;;;;14.63;90.11;99475.40;235663;1209;22592;-80
2021/09/02 06:34:13;;;;;;;25.30;8.30;;;;;;;14.89;89.83;99480.60;235656;1205;22475;-82
2021/09/02 06:39:17;;;;;;;34.70;9.00;;;;;;;14.95;89.17;99477.09;235715;1205;22466;-82
2021/09/02 06:44:20;;;;;;;23.50;7.80;;;;;;;14.96;88.96;99477.27;236020;1203;22486;-83
2021/09/02 06:49:23;;;;;;;23.70;8.30;;;;;;;14.97;88.59;99476.39;235923;1205;22602;-81
2021/09/02 06:54:26;;;;;;;17.50;6.80;;;;;;;14.95;88.63;99483.82;235521;1205;22578;-82
2021/09/02 06:59:29;;;;;;;23.40;7.60;;;;;;;15.02;88.92;99490.84;235443;1205;22720;-85
2021/09/02 07:04:31;;;;;;;16.60;7.20;;;;;;;15.10;88.41;99506.14;235414;1203;23303;-82
2021/09/02 07:09:34;;;;;;;23.50;7.60;;;;;;;15.12;88.17;99518.93;236067;1205;25218;-81
2021/09/02 07:14:37;;;;;;;18.60;7.40;;;;;;;15.35;87.98;99522.58;235813;1203;25265;-81
2021/09/02 07:19:41;;;;;;;15.10;6.80;;;;;;;15.34;87.39;99524.98;235418;1208;22463;-81
2021/09/02 07:24:43;;;;;;;18.70;6.60;;;;;;;15.49;87.97;99528.34;235138;1206;22475;-81
2021/09/02 07:29:54;;;;;;;15.50;5.50;;;;;;;15.74;88.02;99532.14;235326;1205;22522;-81
2021/09/02 07:35:17;;;;;;;16.60;7.20;;;;;;;15.88;87.28;99533.30;235233;1205;22573;-82
2021/09/02 07:40:27;;;;;;;13.60;5.60;;;;;;;16.09;87.69;99537.92;235498;1205;22456;-81
2021/09/02 07:45:30;;;;;;;11.80;6.20;;;;;;;16.33;87.22;99541.63;235517;1205;22472;-80
2021/09/02 07:50:35;;;;;;;13.40;4.80;;;;;;;16.37;86.51;99555.04;235766;1196;26317;-80
2021/09/02 07:55:38;;;;;;;12.80;4.70;;;;;;;16.50;86.14;99549.69;235485;1206;23025;-81
2021/09/02 08:00:41;;;;;;;13.10;4.90;;;;;;;16.66;86.10;99549.55;235446;1204;22474;-81
2021/09/02 08:05:45;;;;;;;11.40;4.50;;;;;;;16.92;85.77;99550.48;235786;1205;24059;-81
2021/09/02 08:10:48;;;;;;;14.10;4.80;;;;;;;17.02;85.29;99557.21;235580;1208;22804;-79
2021/09/02 08:15:52;;;;;;;13.20;4.00;;;;;;;17.14;84.89;99562.52;233969;1208;25460;-79
2021/09/02 08:20:55;;;;;;;5.40;3.10;;;;;;;17.20;84.82;99555.69;233620;1204;22461;-78
2021/09/02 08:26:01;;;;;;;8.00;3.90;;;;;;;17.36;84.22;99554.27;234063;1205;25198;-79
2021/09/02 08:31:24;;;;;;;8.00;3.40;;;;;;;17.48;84.06;99557.79;233645;1203;22464;-77
2021/09/02 08:36:26;;;;;;;6.50;3.30;;;;;;;17.49;83.85;99558.13;233908;1204;24116;-79
2021/09/02 08:41:33;;;;;;;7.90;3.20;;;;;;;17.38;83.23;99563.84;234059;1196;24104;-79
2021/09/02 08:46:37;;;;;;;5.80;2.90;;;;;;;17.53;83.37;99569.58;233617;1204;24074;-78
2021/09/02 08:51:40;;;;;;;8.50;3.00;;;;;;;17.57;82.25;99572.07;233814;1203;23547;-80
2021/09/02 08:56:43;;;;;;;5.80;3.10;;;;;;;17.67;82.39;99576.52;235623;1206;22497;-82
2021/09/02 09:01:50;;;;;;;9.60;3.60;;;;;;;17.68;81.32;99573.34;234776;1198;24061;-79
2021/09/02 09:06:53;;;;;;;5.40;2.30;;;;;;;17.89;81.13;99570.59;233878;1204;25207;-80
2021/09/02 09:12:00;;;;;;;4.10;2.00;;;;;;;17.77;79.94;99564.36;233298;1206;22469;-79
2021/09/02 09:17:24;;;;;;;2.50;2.00;;;;;;;17.66;79.53;99561.02;233621;1205;24080;-78
2021/09/02 09:22:33;;;;;;;4.60;2.10;;;;;;;17.81;79.93;99564.19;233500;1203;22469;-79
2021/09/02 09:27:50;;;;;;;3.30;1.80;;;;;;;18.06;78.89;99557.91;233658;1206;24182;-78
2021/09/02 09:33:03;;;;;;;3.50;2.30;;;;;;;18.18;78.00;99555.86;233807;1212;24234;-77
2021/09/02 09:38:15;;;;;;;4.20;2.30;;;;;;;18.25;76.90;99562.30;233555;1205;25236;-78
2021/09/02 09:43:31;;;;;;;4.00;1.40;;;;;;;18.25;76.14;99562.98;233957;1199;24086;-81
2021/09/02 09:48:39;;;;;;;3.10;2.40;;;;;;;18.45;75.48;99561.73;233985;1205;22600;-82
2021/09/02 09:53:47;;;;;;;6.10;2.00;;;;;;;18.50;74.06;99569.80;234757;1205;22479;-83
2021/09/02 09:58:53;;;;;;;4.10;2.40;;;;;;;18.44;73.70;99568.23;235469;1205;22443;-83
2021/09/02 10:03:57;;;;;;;2.80;1.40;;;;;;;18.58;73.09;99569.43;235949;1205;22366;-84
2021/09/02 10:09:11;;;;;;;3.60;1.70;;;;;;;18.67;72.50;99574.62;236356;1204;22485;-86
2021/09/02 10:14:30;;;;;;;3.40;2.00;;;;;;;18.74;72.09;99577.32;235797;1208;23429;-82
2021/09/02 10:19:43;;;;;;;1.70;1.30;;;;;;;18.87;71.98;99581.00;236051;1202;22477;-82
2021/09/02 10:24:47;;;;;;;2.80;1.60;;;;;;;19.01;71.06;99582.95;235295;1205;22601;-82
2021/09/02 10:29:52;;;;;;;3.60;1.50;;;;;;;18.97;69.53;99582.56;235733;1208;22933;-82
2021/09/02 10:35:16;;;;;;;1.40;1.30;;;;;;;18.84;68.85;99584.86;235950;1204;26207;-83
2021/09/02 10:40:48;;;;;;;3.60;1.50;;;;;;;18.91;68.81;99582.32;235752;1198;22579;-83
2021/09/02 10:46:36;;;;;;;1.10;1.00;;;;;;;18.91;68.94;99590.00;235922;1204;22513;-82
2021/09/02 10:51:42;;;;;;;4.10;1.40;;;;;;;19.17;68.87;99588.09;235258;1205;22898;-80
2021/09/02 10:57:05;;;;;;;2.30;1.10;;;;;;;19.33;68.23;99592.38;235163;1203;25393;-81
2021/09/02 11:02:33;;;;;;;1.90;1.40;;;;;;;19.44;67.16;99585.31;235304;1198;22746;-82
2021/09/02 11:07:46;;;;;;;2.40;1.50;;;;;;;19.65;66.50;99586.24;235591;1205;22397;-82
2021/09/02 11:13:00;;;;;;;1.10;1.00;;;;;;;19.64;65.94;99584.45;235669;1204;22481;-81
2021/09/02 11:18:06;;;;;;;1.80;1.40;;;;;;;19.51;65.20;99588.30;235805;1204;24066;-82
2021/09/02 11:23:19;;;;;;;1.40;1.10;;;;;;;19.47;65.80;99588.30;235640;1204;22466;-82
2021/09/02 11:28:22;;;;;;;2.50;1.20;;;;;;;19.38;65.45;99588.39;235115;1203;22464;-81
2021/09/02 11:33:25;;;;;;;1.50;0.90;;;;;;;19.40;65.39;99581.24;235543;1205;25191;-82
2021/09/02 11:38:28;;;;;;;1.20;1.00;;;;;;;19.57;65.82;99584.48;235528;1204;22484;-83
2021/09/02 11:43:37;;;;;;;2.40;1.30;;;;;;;19.75;64.75;99583.61;235439;1209;22586;-82
2021/09/02 11:48:53;;;;;;;1.80;1.00;;;;;;;20.05;64.35;99584.15;235912;1204;22513;-81
2021/09/02 11:54:06;;;;;;;2.20;1.40;;;;;;;20.42;63.95;99586.94;235020;1206;25088;-81
2021/09/02 11:59:12;;;;;;;1.40;1.30;;;;;;;20.49;63.25;99578.10;235232;1205;22697;-82
2021/09/02 12:04:24;;;;;;;1.20;0.80;;;;;;;20.61;63.39;99568.73;235486;1204;23085;-81
2021/09/02 12:09:32;;;;;;;1.70;1.30;;;;;;;20.63;62.16;99572.14;235161;1205;22461;-82
2021/09/02 12:14:35;;;;;;;3.10;1.60;;;;;;;20.35;61.25;99573.27;235134;1205;22462;-85
2021/09/02 12:20:00;;;;;;;1.40;1.00;;;;;;;20.20;62.21;99575.67;235377;1204;22485;-81
2021/09/02 12:25:10;;;;;;;2.30;1.10;;;;;;;20.27;62.50;99564.67;235346;1204;24697;-81
2021/09/02 12:30:15;;;;;;;1.70;1.30;;;;;;;20.29;62.68;99565.42;235503;1204;22527;-83
2021/09/02 12:35:19;;;;;;;2.10;1.40;;;;;;;20.26;62.41;99562.27;235386;1204;24137;-81
2021/09/02 12:40:21;;;;;;;1.30;1.10;;;;;;;20.23;62.06;99559.31;235205;1205;23034;-80
2021/09/02 12:45:57;;;;;;;3.90;1.30;;;;;;;20.28;61.73;99554.45;235089;1207;22528;-82
2021/09/02 12:51:00;;;;;;;2.10;1.30;;;;;;;20.43;60.61;99553.27;234842;1200;24157;-82
2021/09/02 12:56:19;;;;;;;1.80;1.10;;;;;;;20.61;60.99;99542.13;235043;1206;22828;-83
2021/09/02 13:01:21;;;;;;;1.90;1.50;;;;;;;20.83;60.79;99550.97;235207;1204;25117;-81
2021/09/02 13:06:26;;;;;;;1.60;0.90;;;;;;;20.95;60.24;99546.63;235504;1204;24110;-81
2021/09/02 13:11:29;;;;;;;2.90;1.80;;;;;;;20.97;59.39;99543.98;235274;1205;22392;-81
2021/09/02 13:16:33;;;;;;;3.70;1.30;;;;;;;20.76;59.50;99542.77;235321;1206;24167;-80
2021/09/02 13:21:35;;;;;;;3.20;1.30;;;;;;;20.54;60.02;99538.86;234920;1205;22464;-82
2021/09/02 13:26:39;;;;;;;2.80;1.60;;;;;;;20.33;60.27;99540.84;235354;1205;22915;-83
2021/09/02 13:31:43;;;;;;;2.50;1.60;;;;;;;20.17;60.47;99537.80;235458;1205;22389;-82
2021/09/02 13:36:47;;;;;;;2.00;1.20;;;;;;;20.07;61.10;99541.39;235354;1204;25416;-81
2021/09/02 13:41:51;;;;;;;1.50;1.10;;;;;;;19.95;61.37;99537.61;235179;1199;22554;-83
2021/09/02 13:46:54;;;;;;;2.20;1.50;;;;;;;19.81;61.55;99540.70;235193;1205;24092;-81
2021/09/02 13:52:07;;;;;;;2.40;1.40;;;;;;;19.69;61.74;99539.35;235550;1206;24028;-82
2021/09/02 13:57:18;;;;;;;2.00;1.40;;;;;;;19.55;61.74;99531.52;235837;1197;23003;-81
2021/09/02 14:02:22;;;;;;;3.00;1.60;;;;;;;19.55;62.27;99529.52;236206;1204;22446;-81
2021/09/02 14:07:25;;;;;;;2.10;1.70;;;;;;;19.91;62.95;99539.17;235729;1200;25344;-84
2021/09/02 14:12:28;;;;;;;2.50;1.80;;;;;;;20.19;62.23;99537.31;235233;1197;22467;-84
2021/09/02 14:17:32;;;;;;;2.10;1.60;;;;;;;20.18;61.59;99538.12;234963;1204;22476;-81
2021/09/02 14:22:36;;;;;;;2.00;1.10;;;;;;;20.08;61.58;99538.48;235161;1204;22454;-83
2021/09/02 14:27:39;;;;;;;2.20;1.50;;;;;;;19.96;61.29;99540.62;235048;1204;23066;-81
2021/09/02 14:32:42;;;;;;;2.00;1.40;;;;;;;19.75;61.40;99532.77;235278;1204;24048;-82
2021/09/02 14:37:45;;;;;;;4.20;2.20;;;;;;;19.56;62.04;99525.69;235192;1206;22513;-82
2021/09/02 14:42:54;;;;;;;2.50;1.70;;;;;;;19.49;63.00;99525.17;234871;1205;22454;-82
2021/09/02 14:48:13;;;;;;;2.50;1.10;;;;;;;19.55;63.78;99521.98;235268;1204;24068;-81
2021/09/02 14:53:17;;;;;;;2.00;1.40;;;;;;;19.67;63.72;99521.20;235007;1206;22572;-81
2021/09/02 14:58:19;;;;;;;3.00;1.70;;;;;;;19.76;64.05;99517.55;235402;1205;22871;-82
2021/09/02 15:03:23;;;;;;;1.40;1.20;;;;;;;19.80;63.98;99517.45;235419;1198;24048;-83
2021/09/02 15:08:26;;;;;;;2.30;1.30;;;;;;;19.77;63.84;99509.84;235247;1206;22443;-82
2021/09/02 15:13:30;;;;;;;2.80;1.80;;;;;;;19.74;64.23;99499.92;235202;1206;22441;-83
2021/09/02 15:18:34;;;;;;;2.00;1.40;;;;;;;19.72;64.62;99498.46;235389;1212;24034;-85
2021/09/02 15:23:37;;;;;;;3.80;1.70;;;;;;;19.58;64.04;99498.33;235358;1205;22457;-83
2021/09/02 15:28:42;;;;;;;2.60;1.60;;;;;;;19.36;64.17;99501.40;235419;1205;22561;-82
2021/09/02 15:33:59;;;;;;;6.20;1.90;;;;;;;19.23;64.66;99505.48;235436;1204;24047;-84
2021/09/02 15:39:15;;;;;;;4.30;2.40;;;;;;;19.20;65.02;99503.48;235577;1205;24237;-82
2021/09/02 15:44:18;;;;;;;1.90;1.60;;;;;;;19.16;65.29;99498.83;235657;1204;22455;-83
2021/09/02 15:49:22;;;;;;;2.60;1.50;;;;;;;19.16;65.79;99494.27;236640;1204;22922;-83
2021/09/02 15:54:25;;;;;;;3.00;1.90;;;;;;;19.14;66.01;99491.56;235850;1204;24083;-83
2021/09/02 15:59:29;;;;;;;5.30;1.90;;;;;;;19.08;66.33;99487.21;235468;1198;22497;-83
2021/09/02 16:04:33;;;;;;;4.10;2.10;;;;;;;19.01;66.80;99481.27;235359;1204;22472;-83
2021/09/02 16:09:36;;;;;;;4.70;2.80;;;;;;;18.94;66.73;99485.27;235124;1212;22532;-83
2021/09/02 16:14:38;;;;;;;2.70;1.80;;;;;;;18.89;67.10;99483.13;235089;1204;24060;-90
2021/09/02 16:19:43;;;;;;;5.80;2.00;;;;;;;18.88;67.21;99482.99;235264;1204;22466;-85
2021/09/02 16:24:46;;;;;;;4.40;2.80;;;;;;;18.85;67.77;99481.84;235406;1204;22967;-81
2021/09/02 16:29:49;;;;;;;3.80;2.10;;;;;;;18.80;67.72;99479.46;235174;1204;22535;-82
2021/09/02 16:34:54;;;;;;;4.30;2.10;;;;;;;18.71;67.67;99473.53;235274;1197;24268;-82
2021/09/02 16:39:57;;;;;;;5.30;2.00;;;;;;;18.58;67.82;99472.68;235203;1204;23031;-81
2021/09/02 16:45:03;;;;;;;4.10;1.90;;;;;;;18.48;68.48;99463.84;235457;1206;22458;-83
2021/09/02 16:50:08;;;;;;;6.70;2.60;;;;;;;18.45;69.97;99459.99;235320;1204;22488;-84
2021/09/02 16:55:24;;;;;;;5.40;2.50;;;;;;;18.46;70.73;99460.34;235116;1205;22397;-83
2021/09/02 17:00:44;;;;;;;5.90;2.70;;;;;;;18.36;70.27;99457.64;235156;1204;22585;-83
2021/09/02 17:05:47;;;;;;;8.70;2.90;;;;;;;18.22;70.12;99456.64;234904;1205;22465;-83
2021/09/02 17:10:50;;;;;;;2.40;1.90;;;;;;;18.13;70.47;99454.46;235176;1205;22454;-82
2021/09/02 17:15:54;;;;;;;4.40;2.40;;;;;;;17.99;70.66;99452.35;235407;1204;22578;-83
2021/09/02 17:20:57;;;;;;;6.20;2.70;;;;;;;17.93;71.76;99452.13;235297;1197;22578;-82
2021/09/02 17:26:00;;;;;;;5.90;2.90;;;;;;;17.88;72.11;99449.82;235431;1204;22631;-84
2021/09/02 17:31:03;;;;;;;4.90;3.20;;;;;;;17.84;72.44;99450.26;235350;1204;22581;-83
2021/09/02 17:36:09;;;;;;;4.90;2.60;;;;;;;17.83;72.95;99453.01;235212;1205;22457;-83
2021/09/02 17:41:14;;;;;;;6.20;3.10;;;;;;;17.79;73.22;99452.13;235168;1204;22506;-82
2021/09/02 17:46:17;;;;;;;6.70;3.00;;;;;;;17.73;73.48;99455.75;235353;1204;22481;-82
2021/09/02 17:51:21;;;;;;;9.30;4.40;;;;;;;17.68;73.92;99456.84;235285;1205;22515;-83
2021/09/02 17:56:24;;;;;;;10.80;3.90;;;;;;;17.53;73.37;99465.46;235446;1204;24073;-84
2021/09/02 18:01:26;;;;;;;7.80;3.40;;;;;;;17.20;73.01;99471.31;235234;1205;24120;-82
2021/09/02 18:06:30;;;;;;;6.00;3.50;;;;;;;16.90;73.23;99474.37;235038;1205;22466;-82
2021/09/02 18:11:32;;;;;;;6.30;4.00;;;;;;;16.65;73.86;99482.50;235380;1204;22477;-83
2021/09/02 18:16:36;;;;;;;8.70;4.80;;;;;;;16.43;74.43;99487.61;235428;1204;22456;-83
2021/09/02 18:21:39;;;;;;;13.70;4.30;;;;;;;16.31;75.21;99488.14;235340;1204;22367;-83
2021/09/02 18:26:42;;;;;;;8.00;4.80;;;;;;;16.22;75.94;99485.55;235148;1205;22465;-82
2021/09/02 18:31:46;;;;;;;10.50;5.20;;;;;;;16.19;76.88;99489.44;235102;1200;25268;-83
2021/09/02 18:36:48;;;;;;;12.20;6.10;;;;;;;16.14;76.94;99483.84;235017;1200;22469;-82
2021/09/02 18:42:04;;;;;;;10.20;4.90;;;;;;;16.11;77.02;99480.80;235155;1204;23084;-82
2021/09/02 18:47:07;;;;;;;10.60;4.40;;;;;;;16.06;77.26;99476.88;235323;1205;22655;-82
2021/09/02 18:52:12;;;;;;;8.40;4.60;;;;;;;16.00;77.51;99479.35;235177;1204;22468;-83
2021/09/02 18:57:15;;;;;;;10.60;6.40;;;;;;;15.99;78.29;99477.61;235257;1205;24251;-82
2021/09/02 19:02:18;;;;;;;12.20;6.00;;;;;;;15.94;78.00;99475.89;235287;1204;25178;-83
2021/09/02 19:07:22;;;;;;;14.80;6.00;;;;;;;15.74;77.92;99476.60;235249;1204;24047;-81
2021/09/02 19:12:27;;;;;;;11.80;6.80;;;;;;;15.61;78.57;99472.83;235073;1204;24039;-83
2021/09/02 19:17:31;;;;;;;13.50;6.30;;;;;;;15.57;79.13;99474.54;234954;1204;22468;-82
2021/09/02 19:22:35;;;;;;;11.70;5.70;;;;;;;15.60;79.66;99471.64;235022;1204;22610;-83
2021/09/02 19:27:40;;;;;;;11.10;5.80;;;;;;;15.64;79.99;99471.58;235291;1198;24518;-85
2021/09/02 19:32:43;;;;;;;9.70;5.30;;;;;;;15.71;80.34;99471.48;235339;1207;22497;-82
2021/09/02 19:37:49;;;;;;;9.50;5.50;;;;;;;15.79;80.58;99467.85;235127;1206;22779;-81
2021/09/02 19:42:52;;;;;;;8.90;5.40;;;;;;;15.84;80.45;99461.21;235068;1204;22559;-82
2021/09/02 19:47:55;;;;;;;13.00;6.00;;;;;;;15.61;79.42;99456.94;234987;1207;24272;-83
2021/09/02 19:53:16;;;;;;;14.40;6.30;;;;;;;15.31;79.36;99461.95;235024;1206;22465;-81
2021/09/02 19:58:25;;;;;;;15.60;7.50;;;;;;;15.08;79.79;99465.87;235277;1198;22493;-83
2021/09/02 20:03:45;;;;;;;16.00;7.20;;;;;;;14.92;80.18;99467.15;234897;1201;22922;-83
2021/09/02 20:08:53;;;;;;;10.70;6.20;;;;;;;14.88;81.21;99469.42;234971;1205;23036;-84
2021/09/02 20:13:57;;;;;;;11.10;5.90;;;;;;;14.94;81.76;99465.39;235179;1204;22608;-85
2021/09/02 20:19:05;;;;;;;14.40;6.40;;;;;;;14.89;81.33;99463.00;235139;1205;22392;-83
2021/09/02 20:24:09;;;;;;;14.60;6.70;;;;;;;14.86;81.33;99465.60;234894;1204;22494;-82
2021/09/02 20:29:13;;;;;;;13.20;5.90;;;;;;;14.70;81.33;99469.25;235081;1204;22480;-82
2021/09/02 20:34:16;;;;;;;13.40;5.80;;;;;;;14.55;81.53;99467.55;235207;1205;22498;-84
2021/09/02 20:39:33;;;;;;;14.50;6.40;;;;;;;14.42;81.83;99474.04;235299;1203;24059;-83
2021/09/02 20:44:55;;;;;;;12.50;5.10;;;;;;;14.36;81.99;99471.32;235128;1198;22616;-82
2021/09/02 20:50:26;;;;;;;12.00;6.10;;;;;;;14.42;82.21;99468.92;235648;1204;22659;-82
2021/09/02 20:55:36;;;;;;;10.10;5.50;;;;;;;14.46;82.37;99466.48;235322;1204;24048;-82
2021/09/02 21:00:39;;;;;;;14.10;5.70;;;;;;;14.48;82.36;99467.58;235289;1205;24230;-83
2021/09/02 21:05:44;;;;;;;13.20;5.60;;;;;;;14.36;82.09;99472.62;235334;1207;22487;-83
2021/09/02 21:10:49;;;;;;;7.90;4.70;;;;;;;14.22;82.08;99470.12;235507;1207;25424;-83
2021/09/02 21:15:54;;;;;;;11.60;4.90;;;;;;;14.10;82.33;99473.05;235269;1204;22764;-81
2021/09/02 21:21:05;;;;;;;9.30;5.10;;;;;;;13.99;82.48;99472.60;235292;1205;22448;-81
2021/09/02 21:26:09;;;;;;;11.00;4.70;;;;;;;13.86;82.60;99478.17;235172;1212;22593;-82
2021/09/02 21:31:45;;;;;;;9.50;4.50;;;;;;;13.74;82.78;99471.46;235406;1204;22560;-81
2021/09/02 21:36:48;;;;;;;9.40;4.30;;;;;;;13.67;83.09;99475.59;235373;1208;25052;-83
2021/09/02 21:41:55;;;;;;;8.50;4.80;;;;;;;13.59;83.34;99473.45;235438;1207;23119;-82
2021/09/02 21:47:03;;;;;;;11.00;5.80;;;;;;;13.50;83.51;99474.00;235367;1207;22477;-82
2021/09/02 21:52:06;;;;;;;10.40;5.30;;;;;;;13.44;83.76;99469.52;235533;1204;22470;-82
2021/09/02 21:57:09;;;;;;;12.60;4.60;;;;;;;13.45;84.36;99464.08;235562;1211;22484;-83
2021/09/02 22:02:12;;;;;;;11.20;5.40;;;;;;;13.48;84.62;99463.70;235382;1208;22792;-82
2021/09/02 22:07:17;;;;;;;10.20;4.80;;;;;;;13.47;84.31;99466.25;235133;1205;22507;-81
2021/09/02 22:12:28;;;;;;;8.70;4.60;;;;;;;13.39;84.22;99463.55;235190;1204;24068;-82
2021/09/02 22:17:51;;;;;;;13.10;6.00;;;;;;;13.30;84.15;99461.88;235473;1204;22510;-81
2021/09/02 22:22:57;;;;;;;11.30;5.30;;;;;;;13.18;83.83;99458.95;235155;1207;24128;-82
2021/09/02 22:28:01;;;;;;;8.30;5.20;;;;;;;13.01;83.86;99454.59;235160;1207;22924;-83
2021/09/02 22:33:17;;;;;;;8.70;4.90;;;;;;;12.84;84.04;99454.89;235413;1204;22627;-82
2021/09/02 22:38:42;;;;;;;8.60;5.00;;;;;;;12.68;84.42;99444.65;235167;1203;24175;-82
2021/09/02 22:43:44;;;;;;;11.60;5.40;;;;;;;12.66;84.82;99446.23;235317;1204;22545;-82
2021/09/02 22:48:49;;;;;;;9.30;4.60;;;;;;;12.70;85.47;99444.35;235428;1201;22464;-83
2021/09/02 22:53:53;;;;;;;9.70;5.20;;;;;;;12.78;86.22;99439.75;234991;1204;22557;-82
2021/09/02 22:58:58;;;;;;;8.70;4.30;;;;;;;12.81;86.12;99443.69;234958;1203;24088;-83
2021/09/02 23:04:02;;;;;;;12.00;5.20;;;;;;;12.73;85.18;99443.57;235283;1209;24150;-82
2021/09/02 23:09:23;;;;;;;8.30;4.50;;;;;;;12.58;84.75;99440.02;235325;1204;22506;-82
2021/09/02 23:14:32;;;;;;;9.60;4.20;;;;;;;12.42;84.82;99439.80;235010;1206;23703;-82
2021/09/02 23:19:36;;;;;;;9.00;5.10;;;;;;;12.27;85.00;99438.39;235194;1208;22453;-83
2021/09/02 23:24:45;;;;;;;12.20;5.30;;;;;;;12.18;85.23;99434.38;235261;1208;22469;-82
2021/09/02 23:29:52;;;;;;;13.30;5.40;;;;;;;12.14;85.30;99427.98;235018;1209;22479;-84
2021/09/02 23:34:58;;;;;;;7.10;3.60;;;;;;;12.14;85.78;99426.41;235353;1204;22490;-82
2021/09/02 23:40:12;;;;;;;9.30;4.60;;;;;;;12.12;85.98;99422.52;235355;1209;24069;-83